Time;durP1;ratioP1;P1;durP2;ratioP2;P2;SDS_P1;SDS_P2;PMS_P1;PMS_P2;Temp;Humidity;BMP_temperature;BMP_pressure;BME280_temperature;BME280_humidity;BME280_pressure;Samples;Min_cycle;Max_cycle;Signal;HPM_P1;HPM_P2
2022/04/28 00:02:25;;;;;;;;;;;;;;;21.40;30.22;98032.88;5031690;28;1193;-77
2022/04/28 00:04:50;;;;;;;;;;;;;;;21.32;30.38;98033.06;5032683;28;946;-77
2022/04/28 00:07:15;;;;;;;;;;;;;;;21.24;30.54;98037.31;5032760;28;927;-78
2022/04/28 00:09:41;;;;;;;;;;;;;;;21.08;30.65;98034.44;5032571;28;973;-77
2022/04/28 00:12:08;;;;;;;;;;;;;;;21.10;30.87;98031.19;5032644;28;963;-77
2022/04/28 00:14:34;;;;;;;;;;;;;;;21.10;30.56;98034.81;5032955;28;910;-77
2022/04/28 00:17:00;;;;;;;;;;;;;;;21.00;30.68;98035.88;5032233;28;1985;-77
2022/04/28 00:19:25;;;;;;;;;;;;;;;21.20;30.57;98036.59;5032264;28;928;-77
2022/04/28 00:21:50;;;;;;;;;;;;;;;21.29;30.95;98028.25;5052400;28;1064;-78
2022/04/28 00:24:16;;;;;;;;;;;;;;;21.61;30.56;98026.69;5052554;28;887;-78
2022/04/28 00:26:42;;;;;;;;;;;;;;;21.95;29.97;98028.22;5052665;28;975;-77
2022/04/28 00:29:07;;;;;;;;;;;;;;;21.49;30.28;98025.38;5012415;28;947;-77
2022/04/28 00:31:33;;;;;;;;;;;;;;;21.22;30.58;98028.44;5041800;28;989;-77
2022/04/28 00:33:59;;;;;;;;;;;;;;;21.08;31.05;98020.31;5052680;28;935;-77
2022/04/28 00:36:24;;;;;;;;;;;;;;;21.23;30.83;98023.59;5032508;28;1963;-78
2022/04/28 00:38:50;;;;;;;;;;;;;;;21.23;30.43;98021.53;5032258;28;1028;-78
2022/04/28 00:41:15;;;;;;;;;;;;;;;21.14;30.62;98015.72;5032783;28;882;-77
2022/04/28 00:43:48;;;;;;;;;;;;;;;21.11;30.87;98015.81;4989461;28;1227;-77
2022/04/28 00:46:14;;;;;;;;;;;;;;;21.12;31.33;98018.19;4973574;28;966;-77
2022/04/28 00:51:24;;;;;;;;;;;;;;;21.93;29.94;98019.38;4973690;28;977;-77
2022/04/28 00:53:49;;;;;;;;;;;;;;;21.38;30.58;98024.06;4917934;29;1104;-78
2022/04/28 00:56:15;;;;;;;;;;;;;;;21.29;30.88;98010.50;4900406;29;1903;-77
2022/04/28 00:58:40;;;;;;;;;;;;;;;21.11;30.91;98010.94;4916478;29;1089;-77
2022/04/28 01:01:06;;;;;;;;;;;;;;;21.19;30.81;98012.38;4916241;29;908;-78
2022/04/28 01:03:32;;;;;;;;;;;;;;;21.00;31.27;98013.25;4916511;29;992;-77
2022/04/28 01:05:58;;;;;;;;;;;;;;;20.99;31.12;98009.63;4954211;29;1144;-77
2022/04/28 01:08:23;;;;;;;;;;;;;;;21.03;30.96;98009.50;4954275;28;1563;-77
2022/04/28 01:10:49;;;;;;;;;;;;;;;21.06;30.88;98002.97;4937978;28;1501;-78
2022/04/28 01:13:14;;;;;;;;;;;;;;;21.13;30.80;98005.63;4954191;28;1409;-78
2022/04/28 01:15:42;;;;;;;;;;;;;;;21.31;31.33;97997.53;4959944;28;1902;-77
2022/04/28 01:18:08;;;;;;;;;;;;;;;21.84;30.20;98006.63;4938242;29;1238;-77
2022/04/28 01:20:34;;;;;;;;;;;;;;;21.89;29.85;98013.81;4938165;29;970;-77
2022/04/28 01:23:00;;;;;;;;;;;;;;;21.41;30.50;98006.19;4952287;28;1089;-77
2022/04/28 01:25:25;;;;;;;;;;;;;;;21.26;30.84;97995.22;4971813;28;1179;-77
2022/04/28 01:27:51;;;;;;;;;;;;;;;21.09;31.15;98002.13;4976531;28;1298;-76
2022/04/28 01:30:17;;;;;;;;;;;;;;;21.19;30.64;97995.41;4976602;28;1199;-78
2022/04/28 01:32:52;;;;;;;;;;;;;;;21.14;31.20;98003.59;4976312;28;1267;-77
2022/04/28 01:35:17;;;;;;;;;;;;;;;21.73;30.39;97994.81;4976608;28;1894;-77
2022/04/28 01:37:43;;;;;;;;;;;;;;;21.95;30.23;98002.72;4945052;28;929;-78
2022/04/28 01:40:13;;;;;;;;;;;;;;;21.54;30.70;97995.72;5009107;28;1314;-77
2022/04/28 01:42:39;;;;;;;;;;;;;;;21.41;30.56;97994.88;4998982;28;1096;-77
2022/04/28 01:45:07;;;;;;;;;;;;;;;21.18;31.04;98004.31;4966744;28;1311;-77
2022/04/28 01:47:34;;;;;;;;;;;;;;;21.20;30.63;97994.16;4976088;28;1082;-77
2022/04/28 01:50:19;;;;;;;;;;;;;;;21.07;31.11;97998.91;4995728;28;1255;-78
2022/04/28 01:56:03;;;;;;;;;;;;;;;21.00;31.25;98010.41;5008425;28;1898;-77
2022/04/28 01:58:46;;;;;;;;;;;;;;;21.07;31.37;98010.22;4995296;28;1170;-77
2022/04/28 02:01:22;;;;;;;;;;;;;;;21.11;31.15;98004.50;4979201;28;1448;-78
2022/04/28 02:03:48;;;;;;;;;;;;;;;21.36;31.51;98003.91;4979068;28;1061;-77
2022/04/28 02:06:13;;;;;;;;;;;;;;;21.84;30.44;98005.84;4995373;28;955;-77
2022/04/28 02:08:39;;;;;;;;;;;;;;;21.92;30.22;98000.78;4995024;28;1281;-77
2022/04/28 02:11:06;;;;;;;;;;;;;;;21.42;30.70;97996.47;4977067;28;1101;-77
2022/04/28 02:13:54;;;;;;;;;;;;;;;21.26;31.01;97995.22;4918147;29;1049;-77
2022/04/28 02:16:40;;;;;;;;;;;;;;;21.06;31.32;98002.97;4899249;29;1907;-77
2022/04/28 02:19:19;;;;;;;;;;;;;;;21.04;31.39;98000.59;4898530;29;1284;-77
2022/04/28 02:21:44;;;;;;;;;;;;;;;21.07;31.43;97998.91;4917922;29;1156;-77
2022/04/28 02:24:12;;;;;;;;;;;;;;;21.12;31.17;97997.59;4939926;29;1094;-77
2022/04/28 02:26:38;;;;;;;;;;;;;;;21.02;31.52;97997.41;4935984;29;1228;-77
2022/04/28 02:29:03;;;;;;;;;;;;;;;21.05;31.37;97993.72;4937091;29;1325;-77
2022/04/28 02:31:34;;;;;;;;;;;;;;;21.42;31.62;97996.47;4936442;29;1163;-78
2022/04/28 02:33:59;;;;;;;;;;;;;;;22.01;30.53;97998.09;4937148;29;832;-77
2022/04/28 02:36:37;;;;;;;;;;;;;;;21.71;30.57;97997.31;4936667;29;1907;-77
2022/04/28 02:39:02;;;;;;;;;;;;;;;21.26;31.32;98000.88;4941207;29;1226;-77
2022/04/28 02:41:29;;;;;;;;;;;;;;;21.06;31.48;97991.66;4971582;28;1230;-78
2022/04/28 02:43:56;;;;;;;;;;;;;;;21.28;31.01;97987.06;4947301;29;1319;-77
2022/04/28 02:46:23;;;;;;;;;;;;;;;21.22;30.89;98008.63;4973711;28;1586;-77
2022/04/28 02:49:17;;;;;;;;;;;;;;;21.09;31.38;98007.78;5033748;28;985;-77
2022/04/28 02:51:43;;;;;;;;;;;;;;;21.00;31.66;98004.75;5050432;28;1083;-77
2022/04/28 02:54:09;;;;;;;;;;;;;;;21.10;31.43;98009.34;5017202;28;1249;-78
2022/04/28 02:56:40;;;;;;;;;;;;;;;21.05;31.33;98007.06;5015646;28;1910;-77
2022/04/28 02:59:07;;;;;;;;;;;;;;;21.10;31.31;98009.34;5033596;28;896;-78
2022/04/28 03:01:32;;;;;;;;;;;;;;;21.62;31.30;98002.81;5013802;28;1230;-78
2022/04/28 03:03:58;;;;;;;;;;;;;;;21.94;30.37;98003.97;5013797;28;942;-77
2022/04/28 03:11:52;;;;;;;;;;;;;;;21.16;31.11;98010.41;4974657;28;1187;-77
2022/04/28 03:14:18;;;;;;;;;;;;;;;21.22;30.97;98005.81;4958108;28;1336;-78
2022/04/28 03:16:43;;;;;;;;;;;;;;;21.29;30.95;98010.50;4974845;28;1914;-78
2022/04/28 03:19:09;;;;;;;;;;;;;;;21.16;31.35;98007.59;4935851;29;1097;-78
2022/04/28 03:21:35;;;;;;;;;;;;;;;21.18;31.10;98007.94;4932335;29;1123;-77
2022/04/28 03:24:02;;;;;;;;;;;;;;;21.11;31.44;98004.50;4901781;29;1276;-78
2022/04/28 03:26:32;;;;;;;;;;;;;;;21.14;31.09;98018.56;4913231;29;1410;-77
2022/04/28 03:28:57;;;;;;;;;;;;;;;21.08;31.19;98017.47;4897946;29;1206;-77
2022/04/28 03:31:24;;;;;;;;;;;;;;;21.13;31.04;98025.44;4917232;29;1256;-78
2022/04/28 03:34:14;;;;;;;;;;;;;;;21.17;30.99;98031.00;4935867;29;1308;-77
2022/04/28 03:36:52;;;;;;;;;;;;;;;21.07;31.05;98032.84;4935694;29;1910;-77
2022/04/28 03:39:25;;;;;;;;;;;;;;;20.99;31.43;98037.13;4937542;28;1162;-77
2022/04/28 03:41:50;;;;;;;;;;;;;;;21.07;31.36;98038.53;4974592;28;1119;-77
2022/04/28 03:44:16;;;;;;;;;;;;;;;21.06;31.00;98032.06;4974125;28;1093;-77
2022/04/28 03:46:42;;;;;;;;;;;;;;;21.12;31.03;98031.53;4973851;28;1327;-77
2022/04/28 03:49:08;;;;;;;;;;;;;;;21.06;31.04;98043.38;4960560;28;1438;-78
2022/04/28 03:51:34;;;;;;;;;;;;;;;21.15;31.22;98042.78;4979884;28;1135;-77
2022/04/28 03:54:03;;;;;;;;;;;;;;;21.13;30.92;98042.41;5012617;28;934;-77
2022/04/28 03:56:31;;;;;;;;;;;;;;;20.95;31.23;98037.19;4992622;28;1915;-77
2022/04/28 03:59:01;;;;;;;;;;;;;;;21.50;31.29;98032.66;4976819;28;1227;-77
2022/04/28 04:01:27;;;;;;;;;;;;;;;21.77;31.20;98035.16;4992851;28;949;-77
2022/04/28 04:04:11;;;;;;;;;;;;;;;21.89;30.69;98035.66;4992989;28;1392;-77
2022/04/28 04:06:42;;;;;;;;;;;;;;;21.41;31.37;98034.50;4992954;28;1132;-77
2022/04/28 04:09:28;;;;;;;;;;;;;;;21.24;31.64;98042.16;4956101;28;1015;-77
2022/04/28 04:11:53;;;;;;;;;;;;;;;21.20;31.46;98045.09;4936162;29;1524;-77
2022/04/28 04:14:23;;;;;;;;;;;;;;;21.20;31.78;98033.75;4923201;29;1219;-78
2022/04/28 04:16:48;;;;;;;;;;;;;;;21.14;31.70;98038.38;4954583;28;1914;-78
2022/04/28 04:19:20;;;;;;;;;;;;;;;21.12;31.96;98038.00;4914399;29;1778;-77
2022/04/28 04:21:51;;;;;;;;;;;;;;;21.14;31.75;98038.38;4892849;29;1136;-77
2022/04/28 04:24:17;;;;;;;;;;;;;;;20.99;31.83;98031.47;4933781;29;1204;-77
2022/04/28 04:26:42;;;;;;;;;;;;;;;21.37;32.23;98028.94;4938362;28;1373;-77
2022/04/28 04:29:12;;;;;;;;;;;;;;;21.93;31.33;98030.72;4986422;28;1447;-77
2022/04/28 04:34:45;;;;;;;;;;;;;;;21.18;31.82;98024.91;4954192;28;1545;-77
2022/04/28 04:37:13;;;;;;;;;;;;;;;21.27;31.73;98041.28;4938736;28;1976;-77
2022/04/28 04:39:40;;;;;;;;;;;;;;;21.18;31.93;98041.88;4973422;28;1115;-78
2022/04/28 04:42:06;;;;;;;;;;;;;;;21.10;32.02;98043.31;4973758;28;1147;-78
2022/04/28 04:44:32;;;;;;;;;;;;;;;21.14;31.85;98058.16;4954116;28;896;-78
2022/04/28 04:46:57;;;;;;;;;;;;;;;21.16;31.62;98061.34;4954252;29;1687;-78
2022/04/28 04:49:35;;;;;;;;;;;;;;;21.01;32.18;98075.03;4956489;28;1136;-78
2022/04/28 04:52:16;;;;;;;;;;;;;;;21.02;32.09;98076.63;4957691;29;1101;-77
2022/04/28 04:54:59;;;;;;;;;;;;;;;20.97;32.34;98076.34;4958025;29;1961;-77
2022/04/28 04:57:24;;;;;;;;;;;;;;;20.78;32.42;98073.13;4938433;29;1149;-77
2022/04/28 04:59:50;;;;;;;;;;;;;;;21.18;32.27;98067.34;4938045;29;1191;-76
2022/04/28 05:02:16;;;;;;;;;;;;;;;21.63;31.67;98069.50;4941981;29;1545;-77
2022/04/28 05:05:01;;;;;;;;;;;;;;;21.97;30.70;98068.25;4937959;29;1368;-78
2022/04/28 05:07:40;;;;;;;;;;;;;;;21.29;31.55;98079.19;4924658;29;927;-77
2022/04/28 05:10:06;;;;;;;;;;;;;;;20.99;31.82;98071.06;4923776;29;1455;-78
2022/04/28 05:12:31;;;;;;;;;;;;;;;21.16;31.48;98072.66;4877370;29;935;-78
2022/04/28 05:15:23;;;;;;;;;;;;;;;21.20;31.37;98078.25;4880899;29;1903;-78
2022/04/28 05:18:04;;;;;;;;;;;;;;;21.14;31.99;98077.97;4880383;29;1416;-77
2022/04/28 05:20:52;;;;;;;;;;;;;;;21.73;31.00;98074.09;4921601;28;1290;-77
2022/04/28 05:23:37;;;;;;;;;;;;;;;21.72;30.26;98078.19;5002751;28;1560;-77
2022/04/28 05:26:28;;;;;;;;;;;;;;;21.24;31.13;98082.59;4989952;28;1123;-77
2022/04/28 05:29:12;;;;;;;;;;;;;;;21.25;30.75;98087.00;5011809;28;999;-77
2022/04/28 05:32:04;;;;;;;;;;;;;;;20.97;31.15;98084.81;4957398;29;1022;-77
2022/04/28 05:34:55;;;;;;;;;;;;;;;21.05;30.86;98089.09;4956057;29;1684;-78
2022/04/28 05:37:21;;;;;;;;;;;;;;;21.17;31.48;98098.91;4937769;29;1985;-78
2022/04/28 05:39:46;;;;;;;;;;;;;;;21.70;30.51;98091.97;4918734;29;1126;-77
2022/04/28 05:42:12;;;;;;;;;;;;;;;22.01;29.43;98094.41;4901136;29;1320;-77
2022/04/28 05:47:22;;;;;;;;;;;;;;;21.13;30.88;98099.00;4879977;29;1470;-77
2022/04/28 05:49:48;;;;;;;;;;;;;;;21.13;30.79;98104.66;4880837;29;1473;-78
2022/04/28 05:52:14;;;;;;;;;;;;;;;21.00;30.92;98100.94;4853676;29;1239;-77
2022/04/28 05:54:40;;;;;;;;;;;;;;;21.00;30.78;98098.91;4848160;29;1858;-78
2022/04/28 05:57:06;;;;;;;;;;;;;;;21.57;30.07;98103.22;4880745;29;1907;-77
2022/04/28 05:59:32;;;;;;;;;;;;;;;21.97;29.45;98099.41;4881070;29;1283;-77
2022/04/28 06:02:16;;;;;;;;;;;;;;;21.52;29.68;98098.09;4882619;29;1034;-76
2022/04/28 06:04:42;;;;;;;;;;;;;;;21.18;30.23;98095.66;4920211;29;1625;-77
2022/04/28 06:07:10;;;;;;;;;;;;;;;21.06;30.48;98094.31;4937356;29;1172;-78
2022/04/28 06:09:40;;;;;;;;;;;;;;;21.07;30.57;98086.63;5014900;28;1251;-78
2022/04/28 06:12:06;;;;;;;;;;;;;;;21.08;30.51;98096.69;5034698;28;1422;-77
2022/04/28 06:15:01;;;;;;;;;;;;;;;20.97;30.55;98094.09;4975601;28;1914;-77
2022/04/28 06:17:42;;;;;;;;;;;;;;;20.86;30.53;98101.25;4975047;28;1602;-77
2022/04/28 06:20:09;;;;;;;;;;;;;;;21.45;30.28;98097.47;4988819;28;1313;-78
2022/04/28 06:22:54;;;;;;;;;;;;;;;21.91;29.08;98095.50;4955631;28;1718;-78
2022/04/28 06:25:20;;;;;;;;;;;;;;;21.70;29.41;98097.63;4957952;28;1405;-78
2022/04/28 06:27:47;;;;;;;;;;;;;;;21.42;29.67;98109.69;4956768;28;1412;-78
2022/04/28 06:30:13;;;;;;;;;;;;;;;21.14;30.01;98117.59;4980844;28;1656;-78
2022/04/28 06:32:38;;;;;;;;;;;;;;;21.10;29.94;98116.88;4975670;28;1149;-77
2022/04/28 06:35:21;;;;;;;;;;;;;;;21.11;29.78;98112.81;4945229;28;1972;-77
2022/04/28 06:37:48;;;;;;;;;;;;;;;21.57;29.69;98122.25;4959258;28;1279;-77
2022/04/28 06:40:14;;;;;;;;;;;;;;;21.95;28.89;98118.88;4972688;28;1260;-78
2022/04/28 06:42:43;;;;;;;;;;;;;;;21.68;28.90;98128.44;5014274;28;1264;-77
2022/04/28 06:45:24;;;;;;;;;;;;;;;21.29;29.70;98124.50;5013801;28;1046;-77
2022/04/28 06:47:52;;;;;;;;;;;;;;;21.18;30.12;98121.13;4972951;28;1971;-77
2022/04/28 06:50:36;;;;;;;;;;;;;;;20.93;30.16;98135.00;5013708;28;1578;-78
2022/04/28 06:53:19;;;;;;;;;;;;;;;20.92;30.35;98130.59;5056386;28;1643;-77
2022/04/28 06:55:49;;;;;;;;;;;;;;;20.89;30.62;98137.16;5055765;28;2131;-77
2022/04/28 06:58:15;;;;;;;;;;;;;;;21.63;29.40;98126.16;5055238;28;1326;-77
2022/04/28 07:00:43;;;;;;;;;;;;;;;22.01;28.58;98125.59;5055266;28;1406;-78
2022/04/28 07:03:10;;;;;;;;;;;;;;;21.57;28.91;98128.72;5057999;28;1682;-77
2022/04/28 07:05:38;;;;;;;;;;;;;;;21.37;29.44;98135.69;5063709;28;1632;-78
2022/04/28 07:08:04;;;;;;;;;;;;;;;21.09;30.06;98140.75;5053591;28;1070;-78
2022/04/28 07:10:37;;;;;;;;;;;;;;;21.12;29.91;98136.22;5020992;28;1688;-78
2022/04/28 07:13:03;;;;;;;;;;;;;;;20.81;29.68;98097.69;5052811;28;1269;-78
2022/04/28 07:15:57;;;;;;;;;;;;;;;21.03;30.05;98150.97;4994251;28;1965;-78
2022/04/28 07:18:42;;;;;;;;;;;;;;;20.94;30.27;98153.59;4979535;28;1324;-78
2022/04/28 07:21:07;;;;;;;;;;;;;;;20.83;30.39;98144.53;4991907;28;1775;-77
2022/04/28 07:23:33;;;;;;;;;;;;;;;21.52;29.59;98148.28;4974265;28;1298;-77
2022/04/28 07:25:59;;;;;;;;;;;;;;;21.98;28.44;98146.31;4993755;28;1170;-77
2022/04/28 07:28:25;;;;;;;;;;;;;;;21.54;29.33;98157.09;4994018;28;1301;-77
2022/04/28 07:31:00;;;;;;;;;;;;;;;21.15;29.71;98153.13;4993819;28;936;-77
2022/04/28 07:33:45;;;;;;;;;;;;;;;21.10;29.82;98156.47;4993677;28;1058;-77
2022/04/28 07:36:29;;;;;;;;;;;;;;;21.01;29.84;98159.09;4993365;28;1911;-78
2022/04/28 07:39:13;;;;;;;;;;;;;;;21.14;29.85;98151.53;4963221;28;976;-77
2022/04/28 07:42:04;;;;;;;;;;;;;;;21.29;29.84;98158.44;4954669;28;1182;-77
2022/04/28 07:44:34;;;;;;;;;;;;;;;21.75;29.08;98156.59;4916476;29;1401;-78
2022/04/28 07:47:00;;;;;;;;;;;;;;;21.94;28.55;98160.56;4916953;29;1329;-77
2022/04/28 07:49:29;;;;;;;;;;;;;;;21.45;29.39;98163.41;4935115;29;1407;-77
2022/04/28 07:51:56;;;;;;;;;;;;;;;21.21;29.87;98167.56;4935123;28;1251;-77
2022/04/28 07:54:21;;;;;;;;;;;;;;;21.08;29.79;98164.59;4993603;28;1103;-78
2022/04/28 07:56:46;;;;;;;;;;;;;;;21.12;29.99;98170.97;5001326;28;1910;-78
2022/04/28 07:59:12;;;;;;;;;;;;;;;20.99;29.79;98168.03;4971984;28;1746;-77
2022/04/28 08:01:43;;;;;;;;;;;;;;;21.20;29.74;98172.41;4974170;28;978;-78
2022/04/28 08:04:09;;;;;;;;;;;;;;;21.59;29.02;98176.41;4911513;29;1147;-77
2022/04/28 08:06:37;;;;;;;;;;;;;;;21.89;28.57;98183.78;4934411;29;1821;-78
2022/04/28 08:09:04;;;;;;;;;;;;;;;22.24;28.06;98187.75;4934780;29;1829;-78
2022/04/28 08:11:30;;;;;;;;;;;;;;;21.91;28.50;98191.81;4935612;29;1303;-78
2022/04/28 08:13:55;;;;;;;;;;;;;;;21.46;28.94;98192.50;4954709;28;1123;-77
2022/04/28 08:16:24;;;;;;;;;;;;;;;21.28;29.54;98190.81;4964266;28;1910;-77
2022/04/28 08:18:49;;;;;;;;;;;;;;;21.35;29.31;98189.91;4973988;28;1163;-77
2022/04/28 08:21:22;;;;;;;;;;;;;;;21.16;29.48;98196.38;4976951;28;1911;-75
2022/04/28 08:23:48;;;;;;;;;;;;;;;21.06;29.88;98186.88;4991820;28;1482;-77
2022/04/28 08:26:13;;;;;;;;;;;;;;;21.00;29.71;98192.25;4995897;28;1472;-76
2022/04/28 08:28:41;;;;;;;;;;;;;;;20.88;30.23;98187.25;4980606;28;1577;-76
2022/04/28 08:31:07;;;;;;;;;;;;;;;21.36;29.58;98185.06;4991800;28;1572;-76
2022/04/28 08:33:33;;;;;;;;;;;;;;;21.84;28.58;98192.78;5008405;28;1150;-76
2022/04/28 08:35:59;;;;;;;;;;;;;;;21.66;28.85;98193.25;4999921;28;1907;-77
2022/04/28 08:38:24;;;;;;;;;;;;;;;21.46;28.87;98198.16;4999848;28;1348;-76
2022/04/28 08:40:51;;;;;;;;;;;;;;;21.29;29.20;98197.28;5000123;28;1455;-77
2022/04/28 08:43:37;;;;;;;;;;;;;;;21.12;29.51;98199.28;5016254;28;1008;-76
2022/04/28 08:48:52;;;;;;;;;;;;;;;21.08;29.55;98209.84;5015577;28;1273;-76
2022/04/28 08:51:19;;;;;;;;;;;;;;;21.24;29.82;98207.09;4957315;28;1224;-76
2022/04/28 08:53:45;;;;;;;;;;;;;;;21.98;28.50;98208.66;4957288;28;1052;-76
2022/04/28 08:56:11;;;;;;;;;;;;;;;21.68;28.74;98207.75;4957637;28;1910;-76
2022/04/28 08:58:38;;;;;;;;;;;;;;;21.28;29.36;98207.81;4957281;28;1310;-76
2022/04/28 09:01:05;;;;;;;;;;;;;;;21.12;29.74;98207.75;4940046;28;1816;-76
2022/04/28 09:04:05;;;;;;;;;;;;;;;21.14;29.58;98205.31;4932790;29;946;-76
2022/04/28 09:06:57;;;;;;;;;;;;;;;21.01;29.71;98215.69;4937889;29;1042;-76
2022/04/28 09:09:57;;;;;;;;;;;;;;;20.94;30.14;98221.50;4918807;29;998;-76
2022/04/28 09:12:26;;;;;;;;;;;;;;;21.32;29.79;98219.88;4918326;29;1602;-77
2022/04/28 09:14:55;;;;;;;;;;;;;;;21.92;28.60;98224.59;4918992;29;1058;-76
2022/04/28 09:17:23;;;;;;;;;;;;;;;21.67;28.67;98228.00;4958702;28;1914;-76
2022/04/28 09:19:57;;;;;;;;;;;;;;;21.25;29.53;98217.19;4959714;28;1975;-76
2022/04/28 09:22:25;;;;;;;;;;;;;;;21.14;29.55;98216.63;4972639;28;1240;-76
2022/04/28 09:24:56;;;;;;;;;;;;;;;21.10;29.85;98213.06;4937280;29;1440;-76
2022/04/28 09:27:21;;;;;;;;;;;;;;;21.12;29.67;98226.78;4952454;28;1417;-76
2022/04/28 09:29:48;;;;;;;;;;;;;;;21.55;29.43;98223.81;4931809;28;1767;-77
2022/04/28 09:32:15;;;;;;;;;;;;;;;22.01;28.57;98224.75;4989335;28;1576;-76
2022/04/28 09:35:09;;;;;;;;;;;;;;;21.44;29.10;98226.09;4937132;29;1332;-76
2022/04/28 09:37:59;;;;;;;;;;;;;;;21.17;29.71;98218.56;4908958;29;1252;-76
2022/04/28 09:43:08;;;;;;;;;;;;;;;21.06;29.94;98223.66;4903755;29;1029;-76
2022/04/28 09:45:37;;;;;;;;;;;;;;;21.11;29.85;98225.97;4937557;29;1265;-76
2022/04/28 09:48:05;;;;;;;;;;;;;;;21.35;29.63;98229.53;4937227;29;1250;-76
2022/04/28 09:50:50;;;;;;;;;;;;;;;22.01;28.39;98224.75;4970146;28;1353;-76
2022/04/28 09:53:22;;;;;;;;;;;;;;;21.68;28.58;98219.06;4985318;28;1015;-76
2022/04/28 09:56:06;;;;;;;;;;;;;;;21.16;29.56;98231.13;4994826;28;1971;-76
2022/04/28 09:59:01;;;;;;;;;;;;;;;21.16;29.52;98228.28;4994937;28;1046;-76
2022/04/28 10:01:29;;;;;;;;;;;;;;;21.15;29.75;98221.03;4978941;28;1154;-76
2022/04/28 10:03:56;;;;;;;;;;;;;;;21.21;29.39;98218.50;4974982;28;1710;-76
2022/04/28 10:06:32;;;;;;;;;;;;;;;21.00;29.56;98225.41;4958975;28;1864;-76
2022/04/28 10:09:12;;;;;;;;;;;;;;;21.03;29.74;98225.31;4956323;29;1392;-76
2022/04/28 10:11:40;;;;;;;;;;;;;;;21.40;29.52;98222.53;4956347;29;1100;-76
2022/04/28 10:14:07;;;;;;;;;;;;;;;21.92;28.49;98230.25;4971539;28;1819;-76
2022/04/28 10:16:33;;;;;;;;;;;;;;;21.72;28.73;98231.13;4941825;28;2009;-76
2022/04/28 10:18:58;;;;;;;;;;;;;;;21.29;29.43;98219.91;4955637;28;1836;-76
2022/04/28 10:21:29;;;;;;;;;;;;;;;21.29;29.49;98220.72;4955388;28;2024;-76
2022/04/28 10:32:51;;;;;;;;;;;;;;;22.04;28.20;98218.22;4898381;29;1989;-76
2022/04/28 10:35:17;;;;;;;;;;;;;;;21.38;29.40;98216.53;4883469;29;1940;-76
2022/04/28 10:37:45;;;;;;;;;;;;;;;21.20;29.80;98223.34;4882666;29;910;-76
2022/04/28 10:40:16;;;;;;;;;;;;;;;21.12;29.74;98221.91;4896510;29;1916;-76
2022/04/28 10:42:45;;;;;;;;;;;;;;;21.13;29.58;98231.19;4899449;29;956;-76
2022/04/28 10:45:20;;;;;;;;;;;;;;;21.02;29.92;98225.75;4917617;29;929;-76
2022/04/28 10:47:46;;;;;;;;;;;;;;;21.50;29.42;98224.34;4951319;28;968;-76
2022/04/28 10:50:24;;;;;;;;;;;;;;;21.97;28.32;98219.19;4958439;28;1029;-76
2022/04/28 10:53:02;;;;;;;;;;;;;;;21.54;28.84;98219.41;4974248;28;1710;-77
2022/04/28 10:55:54;;;;;;;;;;;;;;;21.23;29.65;98222.47;4974629;28;1964;-77
2022/04/28 10:58:20;;;;;;;;;;;;;;;21.12;29.60;98219.06;4935903;29;1100;-76
2022/04/28 11:00:52;;;;;;;;;;;;;;;21.09;29.80;98217.13;4935819;29;1867;-77
2022/04/28 11:03:39;;;;;;;;;;;;;;;21.04;29.74;98223.31;4941107;28;965;-77
2022/04/28 11:06:10;;;;;;;;;;;;;;;21.02;29.74;98223.72;4918530;29;2038;-77
2022/04/28 11:08:37;;;;;;;;;;;;;;;21.11;29.75;98225.97;4919022;29;2050;-76
2022/04/28 11:11:07;;;;;;;;;;;;;;;21.85;28.48;98223.50;4935825;29;906;-76
2022/04/28 11:13:32;;;;;;;;;;;;;;;21.89;28.30;98222.63;4935331;29;1775;-77
2022/04/28 11:15:58;;;;;;;;;;;;;;;21.38;29.30;98227.84;4935609;29;1906;-77
2022/04/28 11:18:24;;;;;;;;;;;;;;;21.25;29.42;98213.56;4904069;29;982;-76
2022/04/28 11:20:50;;;;;;;;;;;;;;;21.08;29.69;98216.31;4879270;29;961;-77
2022/04/28 11:23:17;;;;;;;;;;;;;;;21.02;29.57;98217.25;4883737;29;1861;-77
2022/04/28 11:25:43;;;;;;;;;;;;;;;20.93;29.94;98220.66;4897385;29;1725;-76
2022/04/28 11:28:09;;;;;;;;;;;;;;;21.46;29.19;98215.16;4882356;29;1273;-77
2022/04/28 11:30:35;;;;;;;;;;;;;;;21.84;28.59;98221.13;4896989;29;1815;-76
2022/04/28 11:33:01;;;;;;;;;;;;;;;21.66;28.49;98218.72;4882027;29;1175;-77
2022/04/28 11:35:31;;;;;;;;;;;;;;;21.34;29.36;98213.78;4933088;29;1902;-77
2022/04/28 11:37:56;;;;;;;;;;;;;;;21.31;29.36;98206.19;4954819;28;972;-77
2022/04/28 11:40:24;;;;;;;;;;;;;;;21.15;29.30;98215.38;4954044;28;1935;-77
2022/04/28 11:42:57;;;;;;;;;;;;;;;21.14;29.63;98202.47;4976036;28;969;-77
2022/04/28 11:45:22;;;;;;;;;;;;;;;21.05;29.65;98200.22;5026590;28;1023;-77
2022/04/28 11:47:49;;;;;;;;;;;;;;;21.47;29.24;98200.53;5002248;28;1009;-77
2022/04/28 11:50:20;;;;;;;;;;;;;;;21.90;28.41;98202.34;5013160;28;977;-76
2022/04/28 11:52:56;;;;;;;;;;;;;;;21.72;28.56;98199.16;4992919;28;994;-76
2022/04/28 11:55:23;;;;;;;;;;;;;;;21.36;29.30;98204.88;5003984;28;2055;-76
2022/04/28 11:57:49;;;;;;;;;;;;;;;21.22;29.42;98208.75;5009166;28;996;-77
2022/04/28 12:00:14;;;;;;;;;;;;;;;21.08;29.66;98199.34;4992772;28;1950;-77
2022/04/28 12:02:41;;;;;;;;;;;;;;;21.01;29.72;98198.69;4992734;28;1346;-77
2022/04/28 12:05:17;;;;;;;;;;;;;;;21.15;29.42;98198.41;4993172;28;949;-76
2022/04/28 12:07:43;;;;;;;;;;;;;;;21.08;29.58;98192.88;4991794;28;1812;-77
2022/04/28 12:15:37;;;;;;;;;;;;;;;21.22;29.60;98197.44;4954334;29;1914;-77
2022/04/28 12:20:54;;;;;;;;;;;;;;;21.74;28.60;98191.03;4954128;29;974;-76
2022/04/28 12:23:46;;;;;;;;;;;;;;;21.35;29.44;98191.91;4947221;28;1299;-77
2022/04/28 12:26:12;;;;;;;;;;;;;;;21.29;29.20;98191.63;4935332;29;933;-77
2022/04/28 12:28:39;;;;;;;;;;;;;;;21.14;29.58;98193.16;4959363;28;1080;-76
2022/04/28 12:31:04;;;;;;;;;;;;;;;21.18;29.37;98185.41;4960162;28;942;-76
2022/04/28 12:33:33;;;;;;;;;;;;;;;21.05;29.62;98179.63;4993093;28;1602;-76
2022/04/28 12:36:01;;;;;;;;;;;;;;;21.85;28.64;98192.34;4992926;28;1914;-77
2022/04/28 12:38:27;;;;;;;;;;;;;;;22.05;27.80;98185.78;4992971;28;957;-77
2022/04/28 12:40:52;;;;;;;;;;;;;;;21.62;28.76;98191.72;5002560;28;1713;-76
2022/04/28 12:43:37;;;;;;;;;;;;;;;21.41;28.91;98187.34;4992340;28;963;-77
2022/04/28 12:46:03;;;;;;;;;;;;;;;21.12;29.52;98187.94;5000332;28;1112;-77
2022/04/28 12:48:35;;;;;;;;;;;;;;;20.99;29.73;98184.22;5012588;28;944;-76
2022/04/28 12:51:07;;;;;;;;;;;;;;;21.05;29.52;98183.25;4992826;28;886;-76
2022/04/28 12:53:33;;;;;;;;;;;;;;;20.86;29.84;98174.78;4992849;28;894;-77
2022/04/28 12:56:07;;;;;;;;;;;;;;;21.11;29.73;98185.56;4992778;28;1898;-76
2022/04/28 12:58:35;;;;;;;;;;;;;;;21.60;28.71;98180.81;4992548;28;916;-77
2022/04/28 13:01:00;;;;;;;;;;;;;;;22.03;28.17;98188.28;5011844;28;920;-77
2022/04/28 13:03:28;;;;;;;;;;;;;;;21.54;28.93;98180.56;5013514;28;1691;-77
2022/04/28 13:05:53;;;;;;;;;;;;;;;21.36;28.92;98179.38;5012318;28;948;-77
2022/04/28 13:08:18;;;;;;;;;;;;;;;21.17;29.15;98184.59;5012650;28;1016;-77
2022/04/28 13:10:44;;;;;;;;;;;;;;;21.07;29.46;98185.63;5013694;28;1865;-77
2022/04/28 13:13:10;;;;;;;;;;;;;;;21.02;29.48;98183.31;5016899;28;956;-76
2022/04/28 13:15:35;;;;;;;;;;;;;;;20.98;29.82;98177.72;5035615;28;1977;-76
2022/04/28 13:18:01;;;;;;;;;;;;;;;21.06;29.59;98184.03;5051591;28;1082;-76
2022/04/28 13:20:26;;;;;;;;;;;;;;;21.35;29.14;98183.44;5050048;28;2074;-77
2022/04/28 13:22:52;;;;;;;;;;;;;;;21.91;28.09;98183.31;5035345;28;1195;-77
2022/04/28 13:25:17;;;;;;;;;;;;;;;21.81;28.19;98180.31;5035106;28;960;-76
2022/04/28 13:27:44;;;;;;;;;;;;;;;21.24;29.24;98184.47;5052318;28;1029;-77
2022/04/28 13:30:10;;;;;;;;;;;;;;;21.12;29.29;98182.28;5035807;28;929;-77
2022/04/28 13:32:36;;;;;;;;;;;;;;;21.28;28.95;98185.16;5051897;28;994;-77
2022/04/28 13:35:02;;;;;;;;;;;;;;;21.15;29.11;98175.78;5073805;28;1850;-76
2022/04/28 13:37:28;;;;;;;;;;;;;;;21.17;29.00;98176.13;5074962;28;2006;-77
2022/04/28 13:39:54;;;;;;;;;;;;;;;21.62;29.05;98175.53;5057960;28;1939;-77
2022/04/28 13:42:19;;;;;;;;;;;;;;;21.98;28.00;98174.66;5058607;28;1666;-77
2022/04/28 13:44:45;;;;;;;;;;;;;;;21.65;28.57;98180.28;5058122;28;940;-77
2022/04/28 13:47:10;;;;;;;;;;;;;;;21.37;28.94;98175.31;5057858;28;926;-77
2022/04/28 13:49:36;;;;;;;;;;;;;;;21.17;29.21;98187.44;5057578;28;967;-77
2022/04/28 13:52:01;;;;;;;;;;;;;;;21.09;29.41;98186.00;5057587;28;930;-77
2022/04/28 13:54:27;;;;;;;;;;;;;;;21.05;29.48;98182.47;5074019;28;1901;-76
2022/04/28 13:56:53;;;;;;;;;;;;;;;20.94;29.81;98193.22;5077459;28;1985;-77